sensor_id;sensor_type;location;lat;lon;timestamp;temperature;humidity
25945;SHT31;13742;49.306;8.636;2024-01-30T00:00:21;4.23;83.93
25945;SHT31;13742;49.306;8.636;2024-01-30T00:01:21;4.23;83.75
25945;SHT31;13742;49.306;8.636;2024-01-30T00:02:21;4.21;83.80
25945;SHT31;13742;49.306;8.636;2024-01-30T00:03:21;4.22;83.49
25945;SHT31;13742;49.306;8.636;2024-01-30T00:04:21;4.19;83.60
25945;SHT31;13742;49.306;8.636;2024-01-30T00:05:21;4.18;83.76
25945;SHT31;13742;49.306;8.636;2024-01-30T00:06:21;4.16;83.63
25945;SHT31;13742;49.306;8.636;2024-01-30T00:07:21;4.18;83.72
25945;SHT31;13742;49.306;8.636;2024-01-30T00:08:21;4.12;83.56
25945;SHT31;13742;49.306;8.636;2024-01-30T00:09:21;4.13;83.54
25945;SHT31;13742;49.306;8.636;2024-01-30T00:10:21;4.12;83.64
25945;SHT31;13742;49.306;8.636;2024-01-30T00:11:21;4.12;83.61
25945;SHT31;13742;49.306;8.636;2024-01-30T00:12:21;4.11;83.67
25945;SHT31;13742;49.306;8.636;2024-01-30T00:13:21;4.09;83.69
25945;SHT31;13742;49.306;8.636;2024-01-30T00:14:21;4.11;83.66
25945;SHT31;13742;49.306;8.636;2024-01-30T00:15:21;4.09;83.53
25945;SHT31;13742;49.306;8.636;2024-01-30T00:16:22;4.08;83.75
25945;SHT31;13742;49.306;8.636;2024-01-30T00:17:21;4.08;83.69
25945;SHT31;13742;49.306;8.636;2024-01-30T00:18:21;4.09;83.56
25945;SHT31;13742;49.306;8.636;2024-01-30T00:19:21;4.08;83.76
25945;SHT31;13742;49.306;8.636;2024-01-30T00:20:21;4.06;83.87
25945;SHT31;13742;49.306;8.636;2024-01-30T00:21:21;4.08;84.01
25945;SHT31;13742;49.306;8.636;2024-01-30T00:22:21;4.11;84.00
25945;SHT31;13742;49.306;8.636;2024-01-30T00:23:21;4.11;83.93
25945;SHT31;13742;49.306;8.636;2024-01-30T00:24:21;4.06;83.66
25945;SHT31;13742;49.306;8.636;2024-01-30T00:25:21;4.06;83.80
25945;SHT31;13742;49.306;8.636;2024-01-30T00:26:21;4.06;83.79
25945;SHT31;13742;49.306;8.636;2024-01-30T00:27:21;4.08;83.82
25945;SHT31;13742;49.306;8.636;2024-01-30T00:28:21;4.08;83.76
25945;SHT31;13742;49.306;8.636;2024-01-30T00:29:22;4.08;83.76
25945;SHT31;13742;49.306;8.636;2024-01-30T00:30:21;4.02;83.76
25945;SHT31;13742;49.306;8.636;2024-01-30T00:31:21;4.04;83.64
25945;SHT31;13742;49.306;8.636;2024-01-30T00:32:22;4.00;84.03
25945;SHT31;13742;49.306;8.636;2024-01-30T00:33:21;4.05;84.01
25945;SHT31;13742;49.306;8.636;2024-01-30T00:34:21;4.04;83.64
25945;SHT31;13742;49.306;8.636;2024-01-30T00:35:22;4.04;83.96
25945;SHT31;13742;49.306;8.636;2024-01-30T00:36:21;4.05;83.87
25945;SHT31;13742;49.306;8.636;2024-01-30T00:37:21;4.05;83.93
25945;SHT31;13742;49.306;8.636;2024-01-30T00:38:21;4.04;83.57
25945;SHT31;13742;49.306;8.636;2024-01-30T00:39:21;4.01;83.77
25945;SHT31;13742;49.306;8.636;2024-01-30T00:40:21;4.01;83.70
25945;SHT31;13742;49.306;8.636;2024-01-30T00:41:21;4.02;83.91
25945;SHT31;13742;49.306;8.636;2024-01-30T00:42:23;3.98;83.67
25945;SHT31;13742;49.306;8.636;2024-01-30T00:43:21;3.97;83.77
25945;SHT31;13742;49.306;8.636;2024-01-30T00:44:21;3.95;83.92
25945;SHT31;13742;49.306;8.636;2024-01-30T00:45:21;3.94;83.87
25945;SHT31;13742;49.306;8.636;2024-01-30T00:46:21;3.92;84.04
25945;SHT31;13742;49.306;8.636;2024-01-30T00:47:21;3.92;83.91
25945;SHT31;13742;49.306;8.636;2024-01-30T00:48:21;3.91;84.11
25945;SHT31;13742;49.306;8.636;2024-01-30T00:49:21;3.94;84.07
25945;SHT31;13742;49.306;8.636;2024-01-30T00:50:21;3.91;84.00
25945;SHT31;13742;49.306;8.636;2024-01-30T00:51:21;3.91;83.86
25945;SHT31;13742;49.306;8.636;2024-01-30T00:52:21;3.91;84.07
25945;SHT31;13742;49.306;8.636;2024-01-30T00:53:21;3.88;83.97
25945;SHT31;13742;49.306;8.636;2024-01-30T00:54:21;3.88;84.07
25945;SHT31;13742;49.306;8.636;2024-01-30T00:55:21;3.87;84.10
25945;SHT31;13742;49.306;8.636;2024-01-30T00:56:21;3.88;84.15
25945;SHT31;13742;49.306;8.636;2024-01-30T00:57:21;3.88;84.19
25945;SHT31;13742;49.306;8.636;2024-01-30T00:58:21;3.85;84.35
25945;SHT31;13742;49.306;8.636;2024-01-30T00:59:21;3.87;84.10
25945;SHT31;13742;49.306;8.636;2024-01-30T01:00:21;3.90;84.18
25945;SHT31;13742;49.306;8.636;2024-01-30T01:01:21;3.88;83.97
25945;SHT31;13742;49.306;8.636;2024-01-30T01:02:21;3.87;83.88
25945;SHT31;13742;49.306;8.636;2024-01-30T01:03:21;3.85;84.14
25945;SHT31;13742;49.306;8.636;2024-01-30T01:04:21;3.84;84.17
25945;SHT31;13742;49.306;8.636;2024-01-30T01:05:21;3.84;84.16
25945;SHT31;13742;49.306;8.636;2024-01-30T01:06:21;3.82;84.17
25945;SHT31;13742;49.306;8.636;2024-01-30T01:07:21;3.84;84.23
25945;SHT31;13742;49.306;8.636;2024-01-30T01:08:21;3.85;84.26
25945;SHT31;13742;49.306;8.636;2024-01-30T01:09:21;3.85;84.00
25945;SHT31;13742;49.306;8.636;2024-01-30T01:10:21;3.87;84.04
25945;SHT31;13742;49.306;8.636;2024-01-30T01:11:21;3.87;84.10
25945;SHT31;13742;49.306;8.636;2024-01-30T01:12:21;3.85;83.88
25945;SHT31;13742;49.306;8.636;2024-01-30T01:13:21;3.85;84.12
25945;SHT31;13742;49.306;8.636;2024-01-30T01:14:21;3.84;84.04
25945;SHT31;13742;49.306;8.636;2024-01-30T01:15:21;3.85;84.20
25945;SHT31;13742;49.306;8.636;2024-01-30T01:16:21;3.84;84.15
25945;SHT31;13742;49.306;8.636;2024-01-30T01:17:21;3.84;84.08
25945;SHT31;13742;49.306;8.636;2024-01-30T01:18:21;3.81;84.09
25945;SHT31;13742;49.306;8.636;2024-01-30T01:19:21;3.82;84.05
25945;SHT31;13742;49.306;8.636;2024-01-30T01:20:21;3.84;84.28
25945;SHT31;13742;49.306;8.636;2024-01-30T01:21:21;3.82;84.14
25945;SHT31;13742;49.306;8.636;2024-01-30T01:22:21;3.81;84.30
25945;SHT31;13742;49.306;8.636;2024-01-30T01:23:21;3.80;84.32
25945;SHT31;13742;49.306;8.636;2024-01-30T01:24:21;3.80;84.26
25945;SHT31;13742;49.306;8.636;2024-01-30T01:25:21;3.78;84.26
25945;SHT31;13742;49.306;8.636;2024-01-30T01:26:21;3.73;84.40
25945;SHT31;13742;49.306;8.636;2024-01-30T01:27:21;3.77;84.63
25945;SHT31;13742;49.306;8.636;2024-01-30T01:28:21;3.73;84.44
25945;SHT31;13742;49.306;8.636;2024-01-30T01:29:28;3.73;84.39
25945;SHT31;13742;49.306;8.636;2024-01-30T01:30:25;3.73;84.56
25945;SHT31;13742;49.306;8.636;2024-01-30T01:31:24;3.71;84.72
25945;SHT31;13742;49.306;8.636;2024-01-30T01:32:21;3.71;84.72
25945;SHT31;13742;49.306;8.636;2024-01-30T01:33:21;3.69;84.63
25945;SHT31;13742;49.306;8.636;2024-01-30T01:34:21;3.70;84.80
25945;SHT31;13742;49.306;8.636;2024-01-30T01:35:22;3.69;84.86
25945;SHT31;13742;49.306;8.636;2024-01-30T01:36:21;3.67;84.89
25945;SHT31;13742;49.306;8.636;2024-01-30T01:37:22;3.67;84.92
25945;SHT31;13742;49.306;8.636;2024-01-30T01:38:21;3.67;84.79
25945;SHT31;13742;49.306;8.636;2024-01-30T01:39:22;3.66;84.97
25945;SHT31;13742;49.306;8.636;2024-01-30T01:40:22;3.64;85.05
25945;SHT31;13742;49.306;8.636;2024-01-30T01:41:21;3.61;85.03
25945;SHT31;13742;49.306;8.636;2024-01-30T01:42:22;3.64;84.92
25945;SHT31;13742;49.306;8.636;2024-01-30T01:43:21;3.66;85.08
25945;SHT31;13742;49.306;8.636;2024-01-30T01:44:21;3.64;84.98
25945;SHT31;13742;49.306;8.636;2024-01-30T01:45:21;3.64;85.02
25945;SHT31;13742;49.306;8.636;2024-01-30T01:46:21;3.63;84.81
25945;SHT31;13742;49.306;8.636;2024-01-30T01:47:21;3.60;85.06
25945;SHT31;13742;49.306;8.636;2024-01-30T01:48:21;3.59;85.11
25945;SHT31;13742;49.306;8.636;2024-01-30T01:49:23;3.60;85.19
25945;SHT31;13742;49.306;8.636;2024-01-30T01:50:21;3.57;84.95
25945;SHT31;13742;49.306;8.636;2024-01-30T01:51:23;3.57;84.99
25945;SHT31;13742;49.306;8.636;2024-01-30T01:52:21;3.57;85.04
25945;SHT31;13742;49.306;8.636;2024-01-30T01:53:21;3.56;85.23
25945;SHT31;13742;49.306;8.636;2024-01-30T01:54:21;3.51;84.86
25945;SHT31;13742;49.306;8.636;2024-01-30T01:55:26;3.54;84.91
25945;SHT31;13742;49.306;8.636;2024-01-30T01:56:22;3.50;85.25
25945;SHT31;13742;49.306;8.636;2024-01-30T01:57:22;3.49;85.41
25945;SHT31;13742;49.306;8.636;2024-01-30T01:58:21;3.47;85.34
25945;SHT31;13742;49.306;8.636;2024-01-30T01:59:22;3.47;85.19
25945;SHT31;13742;49.306;8.636;2024-01-30T02:00:21;3.47;85.25
25945;SHT31;13742;49.306;8.636;2024-01-30T02:01:21;3.49;85.08
25945;SHT31;13742;49.306;8.636;2024-01-30T02:02:23;3.45;85.54
25945;SHT31;13742;49.306;8.636;2024-01-30T02:03:21;3.45;85.11
25945;SHT31;13742;49.306;8.636;2024-01-30T02:04:21;3.46;85.04
25945;SHT31;13742;49.306;8.636;2024-01-30T02:05:21;3.45;85.26
25945;SHT31;13742;49.306;8.636;2024-01-30T02:06:21;3.43;85.35
25945;SHT31;13742;49.306;8.636;2024-01-30T02:07:21;3.46;85.61
25945;SHT31;13742;49.306;8.636;2024-01-30T02:08:21;3.46;85.36
25945;SHT31;13742;49.306;8.636;2024-01-30T02:09:21;3.47;85.33
25945;SHT31;13742;49.306;8.636;2024-01-30T02:10:21;3.46;85.30
25945;SHT31;13742;49.306;8.636;2024-01-30T02:11:22;3.47;85.25
25945;SHT31;13742;49.306;8.636;2024-01-30T02:12:21;3.50;85.29
25945;SHT31;13742;49.306;8.636;2024-01-30T02:13:21;3.49;85.09
25945;SHT31;13742;49.306;8.636;2024-01-30T02:14:21;3.49;85.01
25945;SHT31;13742;49.306;8.636;2024-01-30T02:15:21;3.47;84.98
25945;SHT31;13742;49.306;8.636;2024-01-30T02:16:21;3.46;85.12
25945;SHT31;13742;49.306;8.636;2024-01-30T02:17:21;3.43;85.53
25945;SHT31;13742;49.306;8.636;2024-01-30T02:18:24;3.43;85.42
25945;SHT31;13742;49.306;8.636;2024-01-30T02:19:21;3.43;85.35
25945;SHT31;13742;49.306;8.636;2024-01-30T02:20:22;3.43;85.33
25945;SHT31;13742;49.306;8.636;2024-01-30T02:21:21;3.43;85.42
25945;SHT31;13742;49.306;8.636;2024-01-30T02:22:22;3.43;85.34
25945;SHT31;13742;49.306;8.636;2024-01-30T02:23:23;3.40;85.36
25945;SHT31;13742;49.306;8.636;2024-01-30T02:24:21;3.39;85.53
25945;SHT31;13742;49.306;8.636;2024-01-30T02:25:33;3.40;85.40
25945;SHT31;13742;49.306;8.636;2024-01-30T02:26:21;3.40;85.13
25945;SHT31;13742;49.306;8.636;2024-01-30T02:27:21;3.39;84.93
25945;SHT31;13742;49.306;8.636;2024-01-30T02:28:21;3.42;85.37
25945;SHT31;13742;49.306;8.636;2024-01-30T02:29:21;3.42;85.40
25945;SHT31;13742;49.306;8.636;2024-01-30T02:30:21;3.40;85.62
25945;SHT31;13742;49.306;8.636;2024-01-30T02:31:21;3.42;85.45
25945;SHT31;13742;49.306;8.636;2024-01-30T02:32:21;3.39;85.33
25945;SHT31;13742;49.306;8.636;2024-01-30T02:33:22;3.39;85.44
25945;SHT31;13742;49.306;8.636;2024-01-30T02:34:21;3.35;85.60
25945;SHT31;13742;49.306;8.636;2024-01-30T02:35:21;3.38;85.54
25945;SHT31;13742;49.306;8.636;2024-01-30T02:36:21;3.36;85.50
25945;SHT31;13742;49.306;8.636;2024-01-30T02:37:21;3.36;85.62
25945;SHT31;13742;49.306;8.636;2024-01-30T02:38:21;3.38;85.82
25945;SHT31;13742;49.306;8.636;2024-01-30T02:39:21;3.38;85.82
25945;SHT31;13742;49.306;8.636;2024-01-30T02:40:21;3.33;85.64
25945;SHT31;13742;49.306;8.636;2024-01-30T02:41:21;3.36;85.56
25945;SHT31;13742;49.306;8.636;2024-01-30T02:42:21;3.35;85.59
25945;SHT31;13742;49.306;8.636;2024-01-30T02:43:21;3.35;85.79
25945;SHT31;13742;49.306;8.636;2024-01-30T02:44:21;3.32;85.78
25945;SHT31;13742;49.306;8.636;2024-01-30T02:45:21;3.35;85.93
25945;SHT31;13742;49.306;8.636;2024-01-30T02:46:21;3.33;85.88
25945;SHT31;13742;49.306;8.636;2024-01-30T02:47:21;3.30;85.88
25945;SHT31;13742;49.306;8.636;2024-01-30T02:48:21;3.30;85.57
25945;SHT31;13742;49.306;8.636;2024-01-30T02:49:21;3.27;85.65
25945;SHT31;13742;49.306;8.636;2024-01-30T02:50:21;3.29;86.09
25945;SHT31;13742;49.306;8.636;2024-01-30T02:51:21;3.33;85.96
25945;SHT31;13742;49.306;8.636;2024-01-30T02:52:21;3.32;85.76
25945;SHT31;13742;49.306;8.636;2024-01-30T02:53:21;3.32;85.64
25945;SHT31;13742;49.306;8.636;2024-01-30T02:54:21;3.33;85.78
25945;SHT31;13742;49.306;8.636;2024-01-30T02:55:21;3.30;85.69
25945;SHT31;13742;49.306;8.636;2024-01-30T02:56:21;3.30;85.78
25945;SHT31;13742;49.306;8.636;2024-01-30T02:57:21;3.24;85.73
25945;SHT31;13742;49.306;8.636;2024-01-30T02:58:21;3.26;86.07
25945;SHT31;13742;49.306;8.636;2024-01-30T02:59:21;3.23;85.88
25945;SHT31;13742;49.306;8.636;2024-01-30T03:00:21;3.26;85.83
25945;SHT31;13742;49.306;8.636;2024-01-30T03:01:21;3.24;85.69
25945;SHT31;13742;49.306;8.636;2024-01-30T03:02:21;3.26;85.65
25945;SHT31;13742;49.306;8.636;2024-01-30T03:03:21;3.23;85.70
25945;SHT31;13742;49.306;8.636;2024-01-30T03:04:21;3.23;85.67
25945;SHT31;13742;49.306;8.636;2024-01-30T03:05:21;3.24;85.70
25945;SHT31;13742;49.306;8.636;2024-01-30T03:06:23;3.22;86.05
25945;SHT31;13742;49.306;8.636;2024-01-30T03:07:21;3.23;85.80
25945;SHT31;13742;49.306;8.636;2024-01-30T03:08:21;3.22;85.84
25945;SHT31;13742;49.306;8.636;2024-01-30T03:09:21;3.22;86.11
25945;SHT31;13742;49.306;8.636;2024-01-30T03:10:21;3.20;85.85
25945;SHT31;13742;49.306;8.636;2024-01-30T03:11:21;3.19;86.03
25945;SHT31;13742;49.306;8.636;2024-01-30T03:12:21;3.18;85.82
25945;SHT31;13742;49.306;8.636;2024-01-30T03:13:21;3.19;86.13
25945;SHT31;13742;49.306;8.636;2024-01-30T03:14:21;3.18;86.11
25945;SHT31;13742;49.306;8.636;2024-01-30T03:15:21;3.18;85.98
25945;SHT31;13742;49.306;8.636;2024-01-30T03:16:21;3.15;86.00
25945;SHT31;13742;49.306;8.636;2024-01-30T03:17:21;3.15;86.02
25945;SHT31;13742;49.306;8.636;2024-01-30T03:18:21;3.12;86.16
25945;SHT31;13742;49.306;8.636;2024-01-30T03:19:21;3.16;86.42
25945;SHT31;13742;49.306;8.636;2024-01-30T03:20:21;3.15;86.25
25945;SHT31;13742;49.306;8.636;2024-01-30T03:21:21;3.13;86.11
25945;SHT31;13742;49.306;8.636;2024-01-30T03:22:21;3.15;85.96
25945;SHT31;13742;49.306;8.636;2024-01-30T03:23:21;3.15;85.89
25945;SHT31;13742;49.306;8.636;2024-01-30T03:24:21;3.15;85.85
25945;SHT31;13742;49.306;8.636;2024-01-30T03:25:21;3.16;85.99
25945;SHT31;13742;49.306;8.636;2024-01-30T03:26:21;3.16;85.95
25945;SHT31;13742;49.306;8.636;2024-01-30T03:27:21;3.13;86.00
25945;SHT31;13742;49.306;8.636;2024-01-30T03:28:21;3.15;86.06
25945;SHT31;13742;49.306;8.636;2024-01-30T03:29:21;3.15;85.90
25945;SHT31;13742;49.306;8.636;2024-01-30T03:30:21;3.12;85.99
25945;SHT31;13742;49.306;8.636;2024-01-30T03:31:21;3.15;85.99
25945;SHT31;13742;49.306;8.636;2024-01-30T03:32:21;3.13;85.87
25945;SHT31;13742;49.306;8.636;2024-01-30T03:33:21;3.12;86.06
25945;SHT31;13742;49.306;8.636;2024-01-30T03:34:21;3.13;85.87
25945;SHT31;13742;49.306;8.636;2024-01-30T03:35:21;3.11;85.77
25945;SHT31;13742;49.306;8.636;2024-01-30T03:36:21;3.09;86.16
25945;SHT31;13742;49.306;8.636;2024-01-30T03:37:21;3.08;86.14
25945;SHT31;13742;49.306;8.636;2024-01-30T03:38:21;3.09;86.22
25945;SHT31;13742;49.306;8.636;2024-01-30T03:39:21;3.09;86.14
25945;SHT31;13742;49.306;8.636;2024-01-30T03:40:21;3.09;85.99
25945;SHT31;13742;49.306;8.636;2024-01-30T03:41:21;3.06;86.18
25945;SHT31;13742;49.306;8.636;2024-01-30T03:42:21;3.08;86.09
25945;SHT31;13742;49.306;8.636;2024-01-30T03:43:21;3.09;86.21
25945;SHT31;13742;49.306;8.636;2024-01-30T03:44:21;3.06;86.32
25945;SHT31;13742;49.306;8.636;2024-01-30T03:45:21;3.08;86.16
25945;SHT31;13742;49.306;8.636;2024-01-30T03:46:21;3.06;86.24
25945;SHT31;13742;49.306;8.636;2024-01-30T03:47:21;3.02;86.21
25945;SHT31;13742;49.306;8.636;2024-01-30T03:48:21;3.03;86.24
25945;SHT31;13742;49.306;8.636;2024-01-30T03:49:21;3.03;86.22
25945;SHT31;13742;49.306;8.636;2024-01-30T03:50:21;3.02;86.41
25945;SHT31;13742;49.306;8.636;2024-01-30T03:51:21;3.05;86.26
25945;SHT31;13742;49.306;8.636;2024-01-30T03:52:21;3.01;86.27
25945;SHT31;13742;49.306;8.636;2024-01-30T03:53:21;3.01;86.36
25945;SHT31;13742;49.306;8.636;2024-01-30T03:54:21;3.01;86.34
25945;SHT31;13742;49.306;8.636;2024-01-30T03:55:21;3.02;86.36
25945;SHT31;13742;49.306;8.636;2024-01-30T03:56:21;3.02;86.21
25945;SHT31;13742;49.306;8.636;2024-01-30T03:57:21;2.99;86.45
25945;SHT31;13742;49.306;8.636;2024-01-30T03:58:21;2.99;86.36
25945;SHT31;13742;49.306;8.636;2024-01-30T03:59:24;3.02;86.18
25945;SHT31;13742;49.306;8.636;2024-01-30T04:00:21;2.98;86.40
25945;SHT31;13742;49.306;8.636;2024-01-30T04:01:21;2.96;86.41
25945;SHT31;13742;49.306;8.636;2024-01-30T04:02:21;2.96;86.39
25945;SHT31;13742;49.306;8.636;2024-01-30T04:03:21;2.96;86.54
25945;SHT31;13742;49.306;8.636;2024-01-30T04:04:21;2.95;86.43
25945;SHT31;13742;49.306;8.636;2024-01-30T04:05:21;2.96;86.46
25945;SHT31;13742;49.306;8.636;2024-01-30T04:06:21;2.95;86.36
25945;SHT31;13742;49.306;8.636;2024-01-30T04:07:21;2.94;86.50
25945;SHT31;13742;49.306;8.636;2024-01-30T04:08:21;2.92;86.51
25945;SHT31;13742;49.306;8.636;2024-01-30T04:09:21;2.92;86.52
25945;SHT31;13742;49.306;8.636;2024-01-30T04:10:21;2.91;86.29
25945;SHT31;13742;49.306;8.636;2024-01-30T04:11:21;2.92;86.51
25945;SHT31;13742;49.306;8.636;2024-01-30T04:12:21;2.92;86.40
25945;SHT31;13742;49.306;8.636;2024-01-30T04:13:21;2.91;86.29
25945;SHT31;13742;49.306;8.636;2024-01-30T04:14:21;2.95;86.46
25945;SHT31;13742;49.306;8.636;2024-01-30T04:15:21;2.92;86.50
25945;SHT31;13742;49.306;8.636;2024-01-30T04:16:22;2.92;86.41
25945;SHT31;13742;49.306;8.636;2024-01-30T04:17:21;2.88;86.47
25945;SHT31;13742;49.306;8.636;2024-01-30T04:18:21;2.90;86.39
25945;SHT31;13742;49.306;8.636;2024-01-30T04:19:21;2.90;86.73
25945;SHT31;13742;49.306;8.636;2024-01-30T04:20:21;2.92;86.52
25945;SHT31;13742;49.306;8.636;2024-01-30T04:21:21;2.91;86.37
25945;SHT31;13742;49.306;8.636;2024-01-30T04:22:21;2.90;86.31
25945;SHT31;13742;49.306;8.636;2024-01-30T04:23:21;2.87;86.54
25945;SHT31;13742;49.306;8.636;2024-01-30T04:24:21;2.87;86.75
25945;SHT31;13742;49.306;8.636;2024-01-30T04:25:21;2.88;86.53
25945;SHT31;13742;49.306;8.636;2024-01-30T04:26:21;2.84;86.68
25945;SHT31;13742;49.306;8.636;2024-01-30T04:27:21;2.88;86.72
25945;SHT31;13742;49.306;8.636;2024-01-30T04:28:21;2.84;86.84
25945;SHT31;13742;49.306;8.636;2024-01-30T04:29:22;2.87;86.81
25945;SHT31;13742;49.306;8.636;2024-01-30T04:30:21;2.88;86.70
25945;SHT31;13742;49.306;8.636;2024-01-30T04:31:21;2.85;86.70
25945;SHT31;13742;49.306;8.636;2024-01-30T04:32:21;2.85;86.86
25945;SHT31;13742;49.306;8.636;2024-01-30T04:33:21;2.85;86.77
25945;SHT31;13742;49.306;8.636;2024-01-30T04:34:21;2.85;86.88
25945;SHT31;13742;49.306;8.636;2024-01-30T04:35:23;2.84;86.60
25945;SHT31;13742;49.306;8.636;2024-01-30T04:36:21;2.82;86.90
25945;SHT31;13742;49.306;8.636;2024-01-30T04:37:21;2.81;87.00
25945;SHT31;13742;49.306;8.636;2024-01-30T04:38:21;2.82;86.81
25945;SHT31;13742;49.306;8.636;2024-01-30T04:39:21;2.82;86.87
25945;SHT31;13742;49.306;8.636;2024-01-30T04:40:21;2.80;86.90
25945;SHT31;13742;49.306;8.636;2024-01-30T04:41:21;2.80;86.87
25945;SHT31;13742;49.306;8.636;2024-01-30T04:42:21;2.81;87.06
25945;SHT31;13742;49.306;8.636;2024-01-30T04:43:21;2.78;86.97
25945;SHT31;13742;49.306;8.636;2024-01-30T04:44:21;2.78;87.08
25945;SHT31;13742;49.306;8.636;2024-01-30T04:45:21;2.80;87.14
25945;SHT31;13742;49.306;8.636;2024-01-30T04:46:21;2.80;86.88
25945;SHT31;13742;49.306;8.636;2024-01-30T04:47:21;2.81;86.90
25945;SHT31;13742;49.306;8.636;2024-01-30T04:48:21;2.80;87.15
25945;SHT31;13742;49.306;8.636;2024-01-30T04:49:21;2.81;87.03
25945;SHT31;13742;49.306;8.636;2024-01-30T04:50:21;2.81;86.86
25945;SHT31;13742;49.306;8.636;2024-01-30T04:51:21;2.84;86.75
25945;SHT31;13742;49.306;8.636;2024-01-30T04:52:21;2.82;86.62
25945;SHT31;13742;49.306;8.636;2024-01-30T04:53:21;2.81;86.67
25945;SHT31;13742;49.306;8.636;2024-01-30T04:54:21;2.81;86.61
25945;SHT31;13742;49.306;8.636;2024-01-30T04:55:21;2.81;86.75
25945;SHT31;13742;49.306;8.636;2024-01-30T04:56:21;2.80;86.65
25945;SHT31;13742;49.306;8.636;2024-01-30T04:57:21;2.81;86.69
25945;SHT31;13742;49.306;8.636;2024-01-30T04:58:21;2.80;86.64
25945;SHT31;13742;49.306;8.636;2024-01-30T04:59:21;2.81;86.80
25945;SHT31;13742;49.306;8.636;2024-01-30T05:00:21;2.78;86.70
25945;SHT31;13742;49.306;8.636;2024-01-30T05:01:21;2.78;86.76
25945;SHT31;13742;49.306;8.636;2024-01-30T05:02:21;2.80;86.78
25945;SHT31;13742;49.306;8.636;2024-01-30T05:03:22;2.75;86.92
25945;SHT31;13742;49.306;8.636;2024-01-30T05:04:22;2.74;86.71
25945;SHT31;13742;49.306;8.636;2024-01-30T05:05:21;2.77;87.02
25945;SHT31;13742;49.306;8.636;2024-01-30T05:06:25;2.75;87.05
25945;SHT31;13742;49.306;8.636;2024-01-30T05:07:21;2.78;87.20
25945;SHT31;13742;49.306;8.636;2024-01-30T05:08:21;2.78;87.25
25945;SHT31;13742;49.306;8.636;2024-01-30T05:09:21;2.81;87.10
25945;SHT31;13742;49.306;8.636;2024-01-30T05:10:21;2.82;87.14
25945;SHT31;13742;49.306;8.636;2024-01-30T05:11:21;2.84;87.08
25945;SHT31;13742;49.306;8.636;2024-01-30T05:12:21;2.85;86.83
25945;SHT31;13742;49.306;8.636;2024-01-30T05:13:21;2.87;87.19
25945;SHT31;13742;49.306;8.636;2024-01-30T05:14:21;2.87;86.90
25945;SHT31;13742;49.306;8.636;2024-01-30T05:15:21;2.88;86.92
25945;SHT31;13742;49.306;8.636;2024-01-30T05:16:21;2.87;86.85
25945;SHT31;13742;49.306;8.636;2024-01-30T05:17:21;2.85;86.91
25945;SHT31;13742;49.306;8.636;2024-01-30T05:18:21;2.88;86.77
25945;SHT31;13742;49.306;8.636;2024-01-30T05:19:23;2.87;86.61
25945;SHT31;13742;49.306;8.636;2024-01-30T05:20:21;2.87;86.52
25945;SHT31;13742;49.306;8.636;2024-01-30T05:21:21;2.84;86.55
25945;SHT31;13742;49.306;8.636;2024-01-30T05:22:21;2.81;86.55
25945;SHT31;13742;49.306;8.636;2024-01-30T05:23:21;2.81;86.47
25945;SHT31;13742;49.306;8.636;2024-01-30T05:24:21;2.81;86.76
25945;SHT31;13742;49.306;8.636;2024-01-30T05:25:21;2.84;86.69
25945;SHT31;13742;49.306;8.636;2024-01-30T05:26:22;2.80;86.72
25945;SHT31;13742;49.306;8.636;2024-01-30T05:27:21;2.78;86.76
25945;SHT31;13742;49.306;8.636;2024-01-30T05:28:21;2.80;86.61
25945;SHT31;13742;49.306;8.636;2024-01-30T05:29:21;2.78;86.49
25945;SHT31;13742;49.306;8.636;2024-01-30T05:30:21;2.77;86.68
25945;SHT31;13742;49.306;8.636;2024-01-30T05:31:21;2.74;86.89
25945;SHT31;13742;49.306;8.636;2024-01-30T05:32:21;2.74;86.92
25945;SHT31;13742;49.306;8.636;2024-01-30T05:33:21;2.75;86.85
25945;SHT31;13742;49.306;8.636;2024-01-30T05:34:21;2.75;86.91
25945;SHT31;13742;49.306;8.636;2024-01-30T05:35:21;2.72;86.92
25945;SHT31;13742;49.306;8.636;2024-01-30T05:36:21;2.74;86.80
25945;SHT31;13742;49.306;8.636;2024-01-30T05:37:21;2.72;87.05
25945;SHT31;13742;49.306;8.636;2024-01-30T05:38:21;2.74;86.93
25945;SHT31;13742;49.306;8.636;2024-01-30T05:39:21;2.71;86.75
25945;SHT31;13742;49.306;8.636;2024-01-30T05:40:21;2.74;87.01
25945;SHT31;13742;49.306;8.636;2024-01-30T05:41:24;2.75;87.05
25945;SHT31;13742;49.306;8.636;2024-01-30T05:42:21;2.70;87.08
25945;SHT31;13742;49.306;8.636;2024-01-30T05:43:21;2.71;87.17
25945;SHT31;13742;49.306;8.636;2024-01-30T05:44:21;2.72;87.18
25945;SHT31;13742;49.306;8.636;2024-01-30T05:45:22;2.71;86.97
25945;SHT31;13742;49.306;8.636;2024-01-30T05:46:21;2.72;87.14
25945;SHT31;13742;49.306;8.636;2024-01-30T05:47:21;2.72;86.97
25945;SHT31;13742;49.306;8.636;2024-01-30T05:48:21;2.68;86.98
25945;SHT31;13742;49.306;8.636;2024-01-30T05:49:21;2.71;87.20
25945;SHT31;13742;49.306;8.636;2024-01-30T05:50:23;2.70;87.19
25945;SHT31;13742;49.306;8.636;2024-01-30T05:51:21;2.72;87.08
25945;SHT31;13742;49.306;8.636;2024-01-30T05:52:21;2.68;87.22
25945;SHT31;13742;49.306;8.636;2024-01-30T05:53:20;2.68;87.24
25945;SHT31;13742;49.306;8.636;2024-01-30T05:54:20;2.71;87.32
25945;SHT31;13742;49.306;8.636;2024-01-30T05:55:20;2.70;87.33
25945;SHT31;13742;49.306;8.636;2024-01-30T05:56:21;2.70;87.35
25945;SHT31;13742;49.306;8.636;2024-01-30T05:57:21;2.67;87.08
25945;SHT31;13742;49.306;8.636;2024-01-30T05:58:21;2.67;87.01
25945;SHT31;13742;49.306;8.636;2024-01-30T05:59:21;2.68;86.98
25945;SHT31;13742;49.306;8.636;2024-01-30T06:00:21;2.67;87.14
25945;SHT31;13742;49.306;8.636;2024-01-30T06:01:21;2.65;87.13
25945;SHT31;13742;49.306;8.636;2024-01-30T06:02:21;2.64;87.09
25945;SHT31;13742;49.306;8.636;2024-01-30T06:03:21;2.67;87.13
25945;SHT31;13742;49.306;8.636;2024-01-30T06:04:21;2.63;87.19
25945;SHT31;13742;49.306;8.636;2024-01-30T06:05:21;2.63;87.06
25945;SHT31;13742;49.306;8.636;2024-01-30T06:06:21;2.63;87.19
25945;SHT31;13742;49.306;8.636;2024-01-30T06:07:22;2.63;87.17
25945;SHT31;13742;49.306;8.636;2024-01-30T06:08:21;2.63;87.23
25945;SHT31;13742;49.306;8.636;2024-01-30T06:09:20;2.63;87.17
25945;SHT31;13742;49.306;8.636;2024-01-30T06:10:21;2.64;87.10
25945;SHT31;13742;49.306;8.636;2024-01-30T06:11:21;2.61;86.88
25945;SHT31;13742;49.306;8.636;2024-01-30T06:12:21;2.59;87.01
25945;SHT31;13742;49.306;8.636;2024-01-30T06:13:21;2.56;87.08
25945;SHT31;13742;49.306;8.636;2024-01-30T06:14:20;2.60;87.14
25945;SHT31;13742;49.306;8.636;2024-01-30T06:15:20;2.59;87.04
25945;SHT31;13742;49.306;8.636;2024-01-30T06:16:22;2.57;87.15
25945;SHT31;13742;49.306;8.636;2024-01-30T06:17:20;2.57;86.98
25945;SHT31;13742;49.306;8.636;2024-01-30T06:18:20;2.57;87.01
25945;SHT31;13742;49.306;8.636;2024-01-30T06:19:20;2.57;87.03
25945;SHT31;13742;49.306;8.636;2024-01-30T06:20:20;2.59;86.97
25945;SHT31;13742;49.306;8.636;2024-01-30T06:21:21;2.54;86.79
25945;SHT31;13742;49.306;8.636;2024-01-30T06:22:21;2.54;86.78
25945;SHT31;13742;49.306;8.636;2024-01-30T06:23:20;2.53;86.86
25945;SHT31;13742;49.306;8.636;2024-01-30T06:24:20;2.50;86.99